• Join FlightAware (Why Join?)
  • Login
  • US Flag 
04:26AM EDT


 

Airport Tracker/Info


-or-


 

Live Flight TrackerFlight Track Log ✈ CHH7916 ✈ 12-Jul-2013 ✈ UIII / IKT - KNZH

Flight Track Log - Related Links

Times and Time Zones

All times are in EDT time to prevent confusion due to time zone crossing. See the CHH7916 flight status page for this flight to view local times or setup timezone preferences in your user account.

Time Position Orientation Groundspeed Altitude Reporting Facility
EDT Latitude Longitude Course Direction KTS MPH feet Rate Location/Type
03:39AM 52.2790 104.3500 294° West 160 184 3,300  Level FlightAware
03:39AM 52.2900 104.3110 295° West 196 226 4,000 1,380 Climbing FlightAware
03:39AM 52.2970 104.2980 311° West 206 237 4,300 1,200 Climbing FlightAware
03:40AM 52.3090 104.2920 343° North 224 258 4,500 2,400 Climbing FlightAware
03:40AM 52.3460 104.3150 21° North 241 277 6,200 2,820 Climbing FlightAware
03:40AM 52.3510 104.3280 58° Northeast 243 280 6,500 2,040 Climbing FlightAware
03:41AM 52.3550 104.3530 75° East 256 295 7,000 2,340 Climbing FlightAware
03:41AM 52.3400 104.4150 112° Southeast 299 344 8,300 2,400 Climbing FlightAware
03:42AM 52.3210 104.4700 119° Southeast 300 345 9,400 2,280 Climbing FlightAware
03:42AM 52.3140 104.4940 115° Southeast 323 372 10,000 2,880 Climbing FlightAware
03:42AM 52.3020 104.6590 97° East 352 405 12,000 1,920 Climbing FlightAware
03:43AM 52.3010 104.6940 93° East 369 425 12,500 1,920 Climbing FlightAware
03:44AM 52.2980 104.8040 93° East 380 437 14,500 3,060 Climbing FlightAware
03:44AM 52.2950 104.9240 92° East 388 447 16,700 3,000 Climbing FlightAware
03:45AM 52.2920 105.0280 93° East 398 458 18,300 2,040 Climbing FlightAware
03:46AM 52.2850 105.2270 93° East 412 474 19,300 1,200 Climbing FlightAware
03:46AM 52.2840 105.2750 92° East 411 473 20,000 1,680 Climbing FlightAware
03:47AM 52.2830 105.4110 91° East 424 488 21,700 2,400 Climbing FlightAware
03:48AM 52.2860 105.5700 88° East 437 503 23,600 2,280 Climbing FlightAware
03:48AM 52.2890 105.6980 88° East 444 511 25,000 1,980 Climbing FlightAware
03:49AM 52.2910 105.8330 89° East 451 519 26,300 1,620 Climbing FlightAware
03:50AM 52.2930 105.9530 88° East 460 529 27,200 900 Climbing FlightAware
03:51AM 52.2960 106.1010 88° East 465 535 27,700 3,120 Climbing FlightAware
03:51AM 52.3240 106.3210 78° East 457 526 31,300 3,540 Climbing FlightAware
03:52AM 52.3340 106.3540 64° Northeast 453 521 31,800 1,200 Climbing FlightAware
03:53AM 52.3680 106.5910 77° East 442 509 33,000 840 Climbing FlightAware
03:53AM 52.3600 106.7360 95° East 447 514 33,000  Level FlightAware
03:54AM 52.3500 106.9150 95° East 453 521 33,000  Level FlightAware
03:55AM 52.3390 107.1180 95° East 454 522 33,000  Level FlightAware
03:56AM 52.3290 107.2840 96° East 454 522 33,000  Level FlightAware
03:56AM 52.3220 107.4060 95° East 455 524 33,000  Level FlightAware
03:58AM 52.3110 107.6100 95° East 455 524 33,000  Level FlightAware
03:58AM 52.3050 107.7150 95° East 455 524 33,000  Level FlightAware
03:59AM 52.3130 107.5720 275° West 455 524 33,000 120 Level FlightAware
04:00AM 52.3120 107.5750 119° Southeast 455 524 33,200 600 Climbing FlightAware
04:00AM 52.3120 107.5750 119° Southeast 455 524 34,000 540 Climbing FlightAware
04:01AM 52.3050 107.7150 95° East 455 524 34,000  Level FlightAware
04:02AM 52.2990 107.8200 95° East 455 524 34,000  Level FlightAware
04:03AM 52.2920 107.9600 95° East 455 524 34,000  Level FlightAware
04:03AM 52.2860 108.0650 95° East 455 524 34,000  Level FlightAware
04:04AM 52.2810 108.1700 94° East 455 524 34,000  Level FlightAware
04:05AM 52.2730 108.3090 95° East 455 524 34,000  Level FlightAware
04:05AM 52.2670 108.4170 95° East 455 524 34,000  Level FlightAware
04:06AM 52.2620 108.5220 94° East 455 524 34,000  Level FlightAware
04:07AM 52.2520 108.6970 95° East 455 524 34,000  Level FlightAware
04:07AM 52.2470 108.8010 94° East 455 524 34,000  Level FlightAware
04:08AM 52.2370 108.9760 95° East 455 524 34,000  Level FlightAware
04:09AM 52.2320 109.0810 94° East 455 524 34,000  Level FlightAware
04:10AM 52.2240 109.2210 95° East 455 524 34,000  Level FlightAware